Time;durP1;ratioP1;P1;durP2;ratioP2;P2;SDS_P1;SDS_P2;PMS_P1;PMS_P2;Temp;Humidity;BMP_temperature;BMP_pressure;BME280_temperature;BME280_humidity;BME280_pressure;Samples;Min_cycle;Max_cycle;Signal;HPM_P1;HPM_P2
2021/03/06 00:01:57;;;;;;;4.30;3.90;;;;;;;-1.04;67.65;97961.13;5076960;28;20710;-68
2021/03/06 00:04:22;;;;;;;5.17;3.83;;;;;;;-1.12;67.90;97961.78;5082860;28;20185;-69
2021/03/06 00:06:48;;;;;;;4.23;3.83;;;;;;;-1.07;67.56;97961.41;5079131;28;20693;-68
2021/03/06 00:09:13;;;;;;;4.00;3.70;;;;;;;-1.12;67.57;97963.53;5086786;28;20261;-68
2021/03/06 00:11:39;;;;;;;3.77;3.47;;;;;;;-1.10;67.38;97959.06;5074962;28;20181;-68
2021/03/06 00:14:05;;;;;;;4.23;3.70;;;;;;;-1.09;67.12;97955.56;5084716;28;20265;-68
2021/03/06 00:16:30;;;;;;;4.83;3.83;;;;;;;-1.10;67.63;97956.47;5074495;28;20182;-66
2021/03/06 00:18:55;;;;;;;4.37;3.70;;;;;;;-1.13;67.37;97959.31;5090557;28;20187;-68
2021/03/06 00:21:21;;;;;;;4.53;4.03;;;;;;;-1.19;67.61;97952.91;5092059;28;20253;-67
2021/03/06 00:23:46;;;;;;;4.47;4.07;;;;;;;-1.20;68.14;97963.31;5079023;28;20189;-68
2021/03/06 00:26:12;;;;;;;4.33;3.97;;;;;;;-1.18;67.82;97962.28;5085292;28;20546;-69
2021/03/06 00:28:37;;;;;;;4.03;3.60;;;;;;;-1.18;67.00;97962.28;5074014;28;20209;-68
2021/03/06 00:31:03;;;;;;;4.00;3.60;;;;;;;-1.22;67.19;97960.88;5087797;28;20611;-69
2021/03/06 00:33:28;;;;;;;4.80;3.93;;;;;;;-1.20;66.64;97956.44;5079819;28;20187;-68
2021/03/06 00:35:54;;;;;;;4.80;4.40;;;;;;;-1.22;66.66;97952.34;5088175;28;20882;-67
2021/03/06 00:38:19;;;;;;;4.23;3.83;;;;;;;-1.25;67.22;97948.28;5076308;28;20184;-68
2021/03/06 00:40:44;;;;;;;5.17;4.33;;;;;;;-1.23;67.00;97950.72;5081735;28;20184;-68
2021/03/06 00:43:10;;;;;;;4.13;3.73;;;;;;;-1.30;66.73;97948.66;5085166;28;20216;-68
2021/03/06 00:45:35;;;;;;;4.90;4.10;;;;;;;-1.20;66.67;97948.72;5074809;28;20185;-67
2021/03/06 00:48:01;;;;;;;4.10;3.80;;;;;;;-1.31;66.94;97952.16;5087156;28;20193;-67
2021/03/06 00:50:33;;;;;;;4.87;4.03;;;;;;;-1.31;66.10;97959.03;5076353;28;20271;-67
2021/03/06 00:52:59;;;;;;;4.40;4.00;;;;;;;-1.34;66.27;97961.88;5081213;28;20208;-68
2021/03/06 00:55:25;;;;;;;4.33;3.93;;;;;;;-1.33;65.97;97960.91;5085744;28;20212;-67
2021/03/06 00:57:50;;;;;;;4.63;4.20;;;;;;;-1.35;66.40;97953.34;5080038;28;20214;-68
2021/03/06 01:00:17;;;;;;;5.43;3.93;;;;;;;-1.31;66.29;97952.16;5087394;28;20528;-68
2021/03/06 01:02:42;;;;;;;4.47;4.07;;;;;;;-1.43;67.00;97960.84;5077931;28;20592;-67
2021/03/06 01:05:08;;;;;;;6.57;4.00;;;;;;;-1.43;66.64;97952.31;5081151;28;20193;-67
2021/03/06 01:07:34;;;;;;;4.37;3.97;;;;;;;-1.36;66.09;97943.19;5085212;28;20188;-65
2021/03/06 01:09:59;;;;;;;4.97;4.17;;;;;;;-1.49;66.35;97952.81;5091391;28;20181;-67
2021/03/06 01:12:25;;;;;;;4.67;4.13;;;;;;;-1.56;67.12;97956.81;5077257;28;20185;-67
2021/03/06 01:14:50;;;;;;;4.20;3.80;;;;;;;-1.53;66.50;97952.25;5086878;28;20235;-67
2021/03/06 01:17:16;;;;;;;5.70;3.80;;;;;;;-1.49;66.57;97945.91;5080360;28;20212;-68
2021/03/06 01:19:41;;;;;;;4.23;3.63;;;;;;;-1.59;67.42;97942.44;5075842;28;20176;-67
2021/03/06 01:22:08;;;;;;;4.17;3.77;;;;;;;-1.50;65.87;97946.03;5081760;28;20276;-69
2021/03/06 01:24:33;;;;;;;4.70;3.80;;;;;;;-1.51;65.84;97949.56;5072283;28;20185;-65
2021/03/06 01:26:59;;;;;;;4.00;3.60;;;;;;;-1.44;65.28;97951.50;5087331;28;20181;-68
2021/03/06 01:29:24;;;;;;;4.33;4.00;;;;;;;-1.53;65.12;97946.28;5072679;28;20515;-68
2021/03/06 01:31:50;;;;;;;4.23;3.90;;;;;;;-1.51;65.30;97947.00;5080884;28;20208;-66
2021/03/06 01:34:15;;;;;;;4.53;4.13;;;;;;;-1.41;65.04;97940.16;5075691;28;20676;-68
2021/03/06 01:36:40;;;;;;;5.40;3.70;;;;;;;-1.45;64.86;97939.56;5087462;28;20192;-67
2021/03/06 01:39:06;;;;;;;4.63;4.00;;;;;;;-1.52;65.35;97938.47;5085018;28;20177;-66
2021/03/06 01:41:31;;;;;;;3.90;3.60;;;;;;;-1.47;64.69;97936.34;5070773;28;20173;-64
2021/03/06 01:43:57;;;;;;;4.23;3.83;;;;;;;-1.58;65.34;97943.25;5082011;28;20192;-68
2021/03/06 01:46:22;;;;;;;5.73;4.10;;;;;;;-1.60;65.52;97943.38;5075243;28;20272;-67
2021/03/06 01:48:47;;;;;;;4.93;3.87;;;;;;;-1.67;65.76;97943.03;5087751;28;20184;-71
2021/03/06 01:51:13;;;;;;;4.27;3.87;;;;;;;-1.52;64.63;97946.16;5077321;28;20232;-68
2021/03/06 01:53:38;;;;;;;6.80;4.00;;;;;;;-1.61;64.43;97938.34;5070638;28;20205;-67
2021/03/06 01:56:04;;;;;;;4.93;4.30;;;;;;;-1.56;64.12;97939.63;5081868;28;20254;-68
2021/03/06 01:58:30;;;;;;;4.53;4.13;;;;;;;-1.54;64.16;97942.06;5090834;28;20542;-68
2021/03/06 02:00:55;;;;;;;4.77;4.27;;;;;;;-1.60;64.44;97942.56;5073603;28;20181;-68
2021/03/06 02:03:21;;;;;;;4.93;4.13;;;;;;;-1.62;63.21;97937.56;5069984;28;20256;-68
2021/03/06 02:05:46;;;;;;;4.40;4.00;;;;;;;-1.60;63.69;97927.97;5079623;28;20195;-68
2021/03/06 02:08:12;;;;;;;5.23;4.07;;;;;;;-1.67;63.65;97932.75;5077175;28;20184;-68
2021/03/06 02:10:42;;;;;;;4.07;3.77;;;;;;;-1.64;63.92;97924.00;5074783;28;20230;-67
2021/03/06 02:13:43;;;;;;;4.30;4.00;;;;;;;-1.63;63.37;97929.97;5082196;28;20645;-69
2021/03/06 02:16:22;;;;;;;4.30;3.90;;;;;;;-1.70;63.77;97925.31;5083986;28;20204;-67
2021/03/06 02:18:52;;;;;;;4.60;4.13;;;;;;;-1.75;63.25;97924.88;5075279;28;20191;-67
2021/03/06 02:21:51;;;;;;;4.70;4.30;;;;;;;-1.67;63.48;97924.25;5087691;28;20189;-68
2021/03/06 02:24:34;;;;;;;4.80;4.33;;;;;;;-1.64;63.15;97921.44;5076485;28;20180;-68
2021/03/06 02:27:15;;;;;;;4.50;4.10;;;;;;;-1.63;63.43;97915.38;5087348;28;20173;-69
2021/03/06 02:29:42;;;;;;;4.60;4.20;;;;;;;-1.71;63.00;97921.09;5085762;28;20184;-68
2021/03/06 02:32:15;;;;;;;4.73;4.20;;;;;;;-1.79;63.49;97914.97;5077446;28;20230;-68
2021/03/06 02:34:47;;;;;;;4.30;4.00;;;;;;;-1.75;63.33;97917.16;5074070;28;20228;-68
2021/03/06 02:37:15;;;;;;;4.30;3.90;;;;;;;-1.80;63.35;97918.47;5077031;28;20189;-69
2021/03/06 02:39:46;;;;;;;4.27;3.87;;;;;;;-1.78;63.91;97908.84;5091306;28;20263;-69
2021/03/06 02:42:16;;;;;;;4.10;3.80;;;;;;;-1.83;63.17;97916.13;5084807;28;20189;-68
2021/03/06 02:44:42;;;;;;;4.67;4.03;;;;;;;-1.86;62.92;97916.38;5089809;28;20218;-67
2021/03/06 02:47:08;;;;;;;4.30;3.90;;;;;;;-1.80;62.63;97914.13;5081383;28;20189;-68
2021/03/06 02:49:35;;;;;;;4.47;4.07;;;;;;;-1.90;62.50;97909.84;5080414;28;20184;-65
2021/03/06 02:52:00;;;;;;;4.17;3.77;;;;;;;-1.96;62.69;97911.16;5079695;28;20185;-68
2021/03/06 02:54:25;;;;;;;4.07;3.77;;;;;;;-2.02;63.09;97908.25;5090332;28;20211;-68
2021/03/06 02:56:51;;;;;;;4.10;3.80;;;;;;;-2.10;63.79;97909.66;5076787;28;20188;-68
2021/03/06 02:59:38;;;;;;;4.17;3.77;;;;;;;-2.02;63.87;97910.81;5089300;28;20519;-68
2021/03/06 03:02:22;;;;;;;4.53;4.13;;;;;;;-2.03;63.68;97910.00;5084289;28;20180;-68
2021/03/06 03:05:08;;;;;;;4.60;4.20;;;;;;;-1.90;63.42;97908.09;5080527;28;20223;-67
2021/03/06 03:07:43;;;;;;;5.43;4.87;;;;;;;-2.01;63.91;97905.56;5082791;28;20201;-68
2021/03/06 03:10:11;;;;;;;6.90;5.03;;;;;;;-2.00;64.60;97902.03;5089775;28;20173;-69
2021/03/06 03:12:44;;;;;;;4.87;4.40;;;;;;;-2.03;64.02;97904.84;5089041;28;20212;-64
2021/03/06 03:15:16;;;;;;;5.00;4.60;;;;;;;-2.00;63.99;97906.34;5081105;28;20220;-68
2021/03/06 03:17:44;;;;;;;5.50;5.00;;;;;;;-2.05;63.07;97906.72;5081022;28;20189;-69
2021/03/06 03:20:28;;;;;;;6.03;4.80;;;;;;;-1.95;63.32;97909.41;5088845;28;20637;-69
2021/03/06 03:22:59;;;;;;;5.70;4.53;;;;;;;-2.03;63.00;97906.59;5077544;28;20188;-69
2021/03/06 03:25:27;;;;;;;4.50;4.10;;;;;;;-2.15;63.13;97901.50;5083938;28;20250;-68
2021/03/06 03:27:54;;;;;;;5.10;4.60;;;;;;;-1.99;62.51;97908.81;5072864;28;20204;-68
2021/03/06 03:30:21;;;;;;;5.13;4.73;;;;;;;-2.04;63.00;97900.66;5089608;28;20272;-69
2021/03/06 03:32:50;;;;;;;4.43;4.03;;;;;;;-2.12;62.47;97903.81;5088399;28;20214;-68
2021/03/06 03:35:18;;;;;;;4.70;4.30;;;;;;;-2.13;62.77;97909.91;5072617;28;20225;-68
2021/03/06 03:37:45;;;;;;;5.27;4.77;;;;;;;-2.05;62.50;97901.59;5080117;28;20194;-68
2021/03/06 03:40:13;;;;;;;4.43;4.03;;;;;;;-2.17;62.27;97898.22;5087419;28;20259;-68
2021/03/06 03:42:39;;;;;;;4.97;4.53;;;;;;;-2.14;63.41;97908.25;5075966;28;20182;-65
2021/03/06 03:45:08;;;;;;;4.77;4.30;;;;;;;-2.18;63.27;97908.63;5086647;28;20270;-68
2021/03/06 03:47:35;;;;;;;4.60;4.20;;;;;;;-2.09;63.27;97907.91;5081811;28;20181;-68
2021/03/06 03:50:01;;;;;;;5.33;3.87;;;;;;;-2.21;63.24;97911.41;5078596;28;20188;-68
2021/03/06 03:52:27;;;;;;;4.83;4.40;;;;;;;-2.30;63.82;97910.41;5089421;28;20537;-68
2021/03/06 03:54:52;;;;;;;4.30;3.90;;;;;;;-2.30;63.33;97915.53;5075753;28;20238;-68
2021/03/06 03:57:18;;;;;;;4.80;4.20;;;;;;;-2.27;63.82;97917.84;5085019;28;20231;-68
2021/03/06 03:59:43;;;;;;;6.03;4.50;;;;;;;-2.31;63.62;97913.06;5081570;28;20188;-68
2021/03/06 04:02:09;;;;;;;4.50;4.10;;;;;;;-2.35;63.57;97915.06;5077509;28;20185;-68
2021/03/06 04:04:34;;;;;;;5.67;4.60;;;;;;;-2.31;63.43;97920.78;5088538;28;20267;-68
2021/03/06 04:07:01;;;;;;;6.20;4.37;;;;;;;-2.38;63.78;97919.59;5087758;28;20208;-68
2021/03/06 04:09:27;;;;;;;4.73;4.30;;;;;;;-2.32;63.09;97922.53;5062347;28;20533;-68
2021/03/06 04:11:53;;;;;;;4.50;4.10;;;;;;;-2.30;63.70;97925.81;5080401;28;20268;-68
2021/03/06 04:14:18;;;;;;;4.67;4.20;;;;;;;-2.26;63.99;97932.31;5087097;28;20205;-69
2021/03/06 04:16:45;;;;;;;3.83;3.53;;;;;;;-2.24;63.90;97934.78;5088620;28;20559;-68
2021/03/06 04:19:11;;;;;;;4.13;3.60;;;;;;;-2.37;64.69;97932.34;5077117;28;20180;-68
2021/03/06 04:21:36;;;;;;;4.63;4.23;;;;;;;-2.40;64.37;97936.91;5081821;28;20530;-69
2021/03/06 04:24:02;;;;;;;4.13;3.83;;;;;;;-2.45;64.00;97939.78;5082478;28;20187;-68
2021/03/06 04:26:27;;;;;;;4.43;4.00;;;;;;;-2.35;64.51;97940.75;5085370;28;20185;-69
2021/03/06 04:28:53;;;;;;;3.93;3.63;;;;;;;-2.25;63.47;97938.28;5077452;28;20181;-66
2021/03/06 04:31:18;;;;;;;4.20;3.80;;;;;;;-2.33;63.59;97933.72;5088516;28;20204;-67
2021/03/06 04:33:44;;;;;;;4.67;3.90;;;;;;;-2.47;63.89;97931.41;5075378;28;20204;-68
2021/03/06 04:36:10;;;;;;;4.20;3.70;;;;;;;-2.45;63.65;97936.44;5079866;28;20224;-68
2021/03/06 04:38:36;;;;;;;5.00;4.53;;;;;;;-2.43;63.89;97929.41;5081374;28;20634;-68
2021/03/06 04:41:01;;;;;;;4.23;3.83;;;;;;;-2.43;64.38;97927.66;5084359;28;20188;-69
2021/03/06 04:43:27;;;;;;;4.00;3.70;;;;;;;-2.41;64.15;97937.81;5079180;28;20180;-69
2021/03/06 04:45:52;;;;;;;4.03;3.63;;;;;;;-2.49;65.37;97935.84;5074013;28;20239;-68
2021/03/06 04:48:18;;;;;;;3.77;3.50;;;;;;;-2.48;64.96;97936.66;5083536;28;20219;-68
2021/03/06 04:50:43;;;;;;;4.23;3.83;;;;;;;-2.54;64.25;97935.38;5081521;28;20214;-68
2021/03/06 04:53:09;;;;;;;4.70;4.10;;;;;;;-2.51;64.69;97937.72;5080942;28;20518;-68
2021/03/06 04:55:34;;;;;;;6.67;4.20;;;;;;;-2.57;64.10;97936.44;5077633;28;20207;-68
2021/03/06 04:57:59;;;;;;;4.10;3.80;;;;;;;-2.53;64.20;97942.97;5074442;28;20176;-68
2021/03/06 05:00:25;;;;;;;4.33;3.93;;;;;;;-2.44;63.91;97944.00;5090193;28;20641;-67
2021/03/06 05:02:51;;;;;;;3.70;3.40;;;;;;;-2.49;63.95;97940.16;5080117;28;20642;-68
2021/03/06 05:05:17;;;;;;;5.80;3.67;;;;;;;-2.35;64.15;97948.44;5071979;28;20180;-68
2021/03/06 05:07:42;;;;;;;6.43;4.17;;;;;;;-2.48;64.62;97939.22;5078539;28;20187;-65
2021/03/06 05:10:08;;;;;;;4.27;3.87;;;;;;;-2.47;64.69;97938.28;5079964;28;20184;-69
2021/03/06 05:12:34;;;;;;;3.83;3.53;;;;;;;-2.49;64.37;97940.97;5085809;28;20655;-67
2021/03/06 05:15:00;;;;;;;4.60;4.10;;;;;;;-2.51;64.67;97942.84;5072855;28;20288;-69
2021/03/06 05:17:25;;;;;;;7.43;4.40;;;;;;;-2.54;64.58;97940.50;5087063;28;20642;-70
2021/03/06 05:19:51;;;;;;;4.20;3.77;;;;;;;-2.69;65.03;97945.06;5078548;28;20229;-68
2021/03/06 05:22:16;;;;;;;8.33;4.60;;;;;;;-2.57;65.56;97941.56;5080081;28;20193;-69
2021/03/06 05:24:41;;;;;;;4.37;3.97;;;;;;;-2.48;64.75;97936.66;5084397;28;20198;-65
2021/03/06 05:27:09;;;;;;;5.03;4.20;;;;;;;-2.67;65.41;97932.91;5073847;28;20613;-67
2021/03/06 05:29:35;;;;;;;4.73;4.13;;;;;;;-2.77;65.64;97938.84;5073871;28;20180;-68
2021/03/06 05:32:02;;;;;;;4.87;4.30;;;;;;;-2.69;65.42;97944.22;5086683;28;20699;-68
2021/03/06 05:34:28;;;;;;;4.40;3.90;;;;;;;-2.66;65.63;97949.13;5079860;28;20255;-68
2021/03/06 05:36:53;;;;;;;4.23;3.90;;;;;;;-2.81;66.04;97938.28;5085771;28;20267;-67
2021/03/06 05:39:19;;;;;;;4.30;3.90;;;;;;;-2.70;65.81;97947.72;5089918;28;20188;-68
2021/03/06 05:41:48;;;;;;;4.87;4.37;;;;;;;-2.69;66.00;97947.63;5073310;28;20185;-65
2021/03/06 05:44:14;;;;;;;4.47;4.17;;;;;;;-2.68;65.38;97946.69;5088613;28;20191;-67
2021/03/06 05:46:43;;;;;;;4.10;3.80;;;;;;;-2.71;64.89;97948.66;5081526;28;20259;-68
2021/03/06 05:49:08;;;;;;;4.33;3.93;;;;;;;-2.66;65.59;97947.38;5084719;28;20188;-68
2021/03/06 05:51:36;;;;;;;4.77;4.37;;;;;;;-2.71;65.93;97940.97;5074118;28;20265;-67
2021/03/06 05:54:10;;;;;;;4.60;4.20;;;;;;;-2.68;65.09;97944.13;5070811;28;20215;-68
2021/03/06 05:56:38;;;;;;;6.77;4.00;;;;;;;-2.75;65.67;97939.56;5079104;28;20182;-67
2021/03/06 05:59:07;;;;;;;4.87;4.10;;;;;;;-2.75;66.31;97939.56;5072813;28;20819;-67
2021/03/06 06:01:33;;;;;;;6.17;4.63;;;;;;;-2.62;65.09;97943.63;5082870;28;20241;-68
2021/03/06 06:04:01;;;;;;;4.50;4.10;;;;;;;-2.67;65.67;97934.66;5081964;28;20247;-67
2021/03/06 06:06:29;;;;;;;6.50;4.10;;;;;;;-2.60;64.58;97936.66;5090152;28;20245;-68
2021/03/06 06:08:58;;;;;;;4.83;4.30;;;;;;;-2.58;65.19;97936.53;5076749;28;20181;-67
2021/03/06 06:11:23;;;;;;;7.47;4.13;;;;;;;-2.47;64.53;97936.53;5080928;28;20189;-68
2021/03/06 06:13:49;;;;;;;4.93;4.37;;;;;;;-2.42;64.73;97934.44;5084392;28;20204;-68
2021/03/06 06:16:15;;;;;;;4.63;4.23;;;;;;;-2.33;63.75;97940.59;5086171;28;20196;-68
2021/03/06 06:18:41;;;;;;;4.70;4.30;;;;;;;-2.30;64.19;97936.06;5080178;28;20280;-68
2021/03/06 06:21:06;;;;;;;4.63;4.23;;;;;;;-2.29;64.93;97945.41;5075395;28;20280;-68
2021/03/06 06:23:32;;;;;;;4.70;4.30;;;;;;;-2.24;64.10;97945.88;5093299;28;20513;-67
2021/03/06 06:25:57;;;;;;;7.13;5.23;;;;;;;-2.12;64.35;97947.47;5081683;28;20828;-67
2021/03/06 06:28:23;;;;;;;5.07;4.53;;;;;;;-1.89;63.42;97948.25;5074387;28;20272;-68
2021/03/06 06:31:26;;;;;;;4.20;3.90;;;;;;;-1.87;63.17;97955.84;5074046;28;20272;-66
2021/03/06 06:33:53;;;;;;;5.17;4.07;;;;;;;-1.90;64.04;97940.69;4994920;28;20219;-66
2021/03/06 06:36:35;;;;;;;5.10;4.50;;;;;;;-1.92;63.75;97939.97;5011505;28;20273;-67
2021/03/06 06:39:02;;;;;;;7.57;4.83;;;;;;;-1.82;63.28;97948.59;4995647;28;20195;-67
2021/03/06 06:41:54;;;;;;;5.53;5.03;;;;;;;-1.77;63.91;97954.16;5012411;28;20613;-66
2021/03/06 06:44:21;;;;;;;5.03;4.30;;;;;;;-1.71;63.42;97958.84;5011668;28;20257;-66
2021/03/06 06:46:48;;;;;;;5.17;4.67;;;;;;;-1.63;63.39;97951.34;5010852;28;20218;-64
2021/03/06 06:49:13;;;;;;;5.27;4.63;;;;;;;-1.60;63.11;97958.81;4995480;28;20709;-66
2021/03/06 06:51:59;;;;;;;5.27;4.77;;;;;;;-1.48;63.13;97959.56;5011991;28;20286;-67
2021/03/06 06:54:25;;;;;;;5.10;4.60;;;;;;;-1.53;63.07;97961.69;5011090;28;20210;-69
2021/03/06 06:57:04;;;;;;;4.50;4.10;;;;;;;-1.36;63.37;97966.31;5010708;28;20191;-67
2021/03/06 06:59:30;;;;;;;5.47;4.13;;;;;;;-1.25;62.94;97961.13;5011217;28;20233;-67
2021/03/06 07:01:55;;;;;;;5.30;4.57;;;;;;;-1.13;62.41;97955.00;5009045;28;20219;-66
2021/03/06 07:04:21;;;;;;;5.10;4.60;;;;;;;-0.91;61.44;97957.44;5041522;28;20207;-68
2021/03/06 07:06:57;;;;;;;5.10;4.60;;;;;;;-0.91;61.20;97960.00;5089344;28;20216;-65
2021/03/06 07:09:23;;;;;;;5.40;4.80;;;;;;;-0.95;61.83;97960.41;5074145;28;20255;-69
2021/03/06 07:11:48;;;;;;;5.90;4.67;;;;;;;-0.91;61.67;97959.19;5081402;28;20315;-73
2021/03/06 07:14:38;;;;;;;5.93;5.03;;;;;;;-0.90;62.19;97958.25;5082994;28;20295;-68
2021/03/06 07:17:04;;;;;;;6.03;4.60;;;;;;;-0.92;62.99;97965.28;5089600;28;20405;-69
2021/03/06 07:19:31;;;;;;;6.07;4.70;;;;;;;-0.79;62.19;97975.38;5087241;28;20264;-69
2021/03/06 07:22:00;;;;;;;5.03;4.53;;;;;;;-0.80;62.76;97977.16;5081104;28;20182;-68
2021/03/06 07:24:27;;;;;;;5.97;4.70;;;;;;;-0.75;63.05;97977.59;5084582;28;20201;-68
2021/03/06 07:26:52;;;;;;;5.67;5.17;;;;;;;-0.60;62.21;97978.88;5081363;28;20545;-68
2021/03/06 07:29:22;;;;;;;7.47;5.37;;;;;;;-0.60;62.88;97976.31;5081707;28;20181;-68
2021/03/06 07:31:50;;;;;;;6.17;5.57;;;;;;;-0.55;62.57;97983.63;5086863;28;20176;-67
2021/03/06 07:34:19;;;;;;;6.17;4.97;;;;;;;-0.61;62.30;97982.38;5091296;28;20283;-69
2021/03/06 07:36:46;;;;;;;5.43;4.87;;;;;;;-0.60;62.92;97984.03;5058426;28;20189;-69
2021/03/06 07:39:13;;;;;;;7.77;5.20;;;;;;;-0.64;62.88;97989.56;5053318;28;20190;-68
2021/03/06 07:41:42;;;;;;;5.50;5.00;;;;;;;-0.54;63.45;97993.00;5068589;28;20174;-68
2021/03/06 07:44:11;;;;;;;5.77;5.17;;;;;;;-0.51;62.96;97988.44;5059851;28;20185;-68
2021/03/06 07:46:39;;;;;;;6.07;5.47;;;;;;;-0.25;62.96;97993.16;5053808;28;20182;-68
2021/03/06 07:49:11;;;;;;;5.77;5.07;;;;;;;-0.11;61.91;97998.75;5049900;28;20239;-69
2021/03/06 07:51:41;;;;;;;6.37;5.27;;;;;;;-0.13;61.36;97995.50;5053560;28;20170;-69
2021/03/06 07:54:09;;;;;;;6.23;5.30;;;;;;;-0.33;62.47;98001.50;5058961;28;20205;-68
2021/03/06 07:56:36;;;;;;;8.37;4.90;;;;;;;-0.05;61.88;98000.81;5071807;28;20653;-69
2021/03/06 07:59:02;;;;;;;6.50;5.87;;;;;;;0.05;61.66;98003.44;5056930;28;20217;-69
2021/03/06 08:01:33;;;;;;;7.67;5.40;;;;;;;0.13;61.65;98003.59;5063080;28;20209;-68
2021/03/06 08:04:00;;;;;;;6.70;5.10;;;;;;;0.29;61.51;98000.50;5057704;28;20182;-70
2021/03/06 08:06:30;;;;;;;5.43;4.93;;;;;;;0.41;60.77;98009.75;5069052;28;20182;-71
2021/03/06 08:08:59;;;;;;;6.20;5.60;;;;;;;0.19;61.09;98012.56;5056237;28;20185;-68
2021/03/06 08:11:41;;;;;;;7.37;5.50;;;;;;;0.43;60.77;98000.16;5062107;28;20178;-68
2021/03/06 08:14:28;;;;;;;7.77;5.17;;;;;;;0.26;61.04;98006.75;5048040;28;20263;-71
2021/03/06 08:16:53;;;;;;;5.97;5.43;;;;;;;0.66;60.79;98008.47;5067301;28;20197;-70
2021/03/06 08:19:19;;;;;;;7.63;5.53;;;;;;;0.70;60.29;98009.81;5060051;28;20701;-69
2021/03/06 08:21:49;;;;;;;6.30;5.70;;;;;;;0.50;59.62;98015.91;5062957;28;20184;-71
2021/03/06 08:24:14;;;;;;;6.57;5.63;;;;;;;0.83;59.83;98016.34;5069961;28;20185;-71
2021/03/06 08:26:53;;;;;;;5.77;5.17;;;;;;;1.00;59.43;98014.03;5061830;28;20285;-72
2021/03/06 08:29:25;;;;;;;6.50;5.80;;;;;;;1.12;58.88;98018.09;5057984;28;20186;-71
2021/03/06 08:32:01;;;;;;;5.93;5.00;;;;;;;1.05;58.69;98017.84;5065496;28;20581;-69
2021/03/06 08:34:45;;;;;;;6.27;5.10;;;;;;;0.98;59.04;98019.34;5041163;28;20237;-73
2021/03/06 08:40:11;;;;;;;5.80;5.20;;;;;;;1.09;58.08;98020.97;5080633;28;20192;-71
2021/03/06 08:42:43;;;;;;;5.50;4.93;;;;;;;1.06;57.42;98016.09;5059512;28;20196;-70
2021/03/06 08:45:17;;;;;;;6.37;5.33;;;;;;;1.17;57.14;98015.94;5071685;28;20191;-74
2021/03/06 08:47:45;;;;;;;5.47;4.93;;;;;;;1.14;56.46;98016.19;5080054;28;20264;-76
2021/03/06 08:50:16;;;;;;;4.93;4.47;;;;;;;1.28;56.39;98018.38;5082729;28;20195;-75
2021/03/06 08:52:52;;;;;;;5.47;4.97;;;;;;;1.38;56.64;98026.09;5085459;28;20646;-74
2021/03/06 08:55:21;;;;;;;5.43;4.93;;;;;;;1.44;55.64;98018.63;5078030;28;20205;-70
2021/03/06 08:57:47;;;;;;;6.47;4.90;;;;;;;1.49;55.79;98021.59;5080928;28;20177;-67
2021/03/06 09:00:29;;;;;;;5.37;4.87;;;;;;;1.48;55.15;98017.38;5085792;28;20196;-69
2021/03/06 09:02:55;;;;;;;6.20;4.97;;;;;;;1.49;55.49;98031.09;5080458;28;20181;-69
2021/03/06 09:05:23;;;;;;;5.40;4.90;;;;;;;1.32;54.27;98021.47;5085751;28;20203;-69
2021/03/06 09:07:51;;;;;;;5.10;4.70;;;;;;;1.08;55.23;98017.56;5084278;28;20267;-67
2021/03/06 09:10:17;;;;;;;5.13;4.63;;;;;;;1.34;54.43;98022.16;5078136;28;20180;-68
2021/03/06 09:12:43;;;;;;;4.93;4.53;;;;;;;1.35;54.45;98022.00;5076716;28;20271;-70
2021/03/06 09:15:11;;;;;;;4.93;4.40;;;;;;;1.39;53.31;98025.16;5080324;28;20212;-68
2021/03/06 09:17:37;;;;;;;5.00;4.50;;;;;;;1.25;53.51;98016.88;5085319;28;20184;-68
2021/03/06 09:20:08;;;;;;;4.50;4.10;;;;;;;1.19;53.92;98020.00;5074990;28;20630;-70
2021/03/06 09:22:48;;;;;;;5.63;4.53;;;;;;;1.34;54.52;98020.38;5079358;28;20190;-70
2021/03/06 09:25:14;;;;;;;5.63;4.37;;;;;;;1.61;54.04;98017.09;5083301;28;20660;-69
2021/03/06 09:27:45;;;;;;;5.17;4.70;;;;;;;1.64;52.61;98019.38;5082470;28;20173;-69
2021/03/06 09:30:27;;;;;;;4.93;4.53;;;;;;;1.75;53.14;98019.22;5075146;28;20645;-70
2021/03/06 09:32:53;;;;;;;4.97;4.47;;;;;;;1.60;53.21;98018.03;5070540;28;20176;-68
2021/03/06 09:35:20;;;;;;;6.00;4.70;;;;;;;1.40;53.02;98013.84;5082313;28;21099;-69
2021/03/06 09:37:46;;;;;;;5.57;4.80;;;;;;;1.54;53.41;98016.00;5082757;28;20180;-70
2021/03/06 09:40:15;;;;;;;4.50;4.10;;;;;;;1.68;53.16;98015.53;5075677;28;20185;-68
2021/03/06 09:42:42;;;;;;;5.23;4.67;;;;;;;1.70;53.07;98015.41;5087845;28;20193;-69
2021/03/06 09:45:08;;;;;;;4.87;4.47;;;;;;;1.79;52.96;98015.38;5075956;28;20303;-69
2021/03/06 09:47:33;;;;;;;4.77;4.37;;;;;;;1.80;52.97;98011.03;5081646;28;20713;-69
2021/03/06 09:49:59;;;;;;;8.00;4.40;;;;;;;1.75;52.38;98014.03;5083032;28;20286;-69
2021/03/06 09:52:31;;;;;;;5.33;4.83;;;;;;;2.02;52.30;98015.84;5074939;28;20646;-70
2021/03/06 09:54:57;;;;;;;5.17;4.67;;;;;;;1.92;51.46;98015.06;5085718;28;20205;-69
2021/03/06 09:57:26;;;;;;;4.73;4.33;;;;;;;1.96;51.66;98021.56;5070244;28;20243;-69
2021/03/06 09:59:51;;;;;;;5.60;4.40;;;;;;;1.82;50.96;98020.28;5081916;28;20538;-68
2021/03/06 10:02:22;;;;;;;7.30;4.80;;;;;;;1.95;51.42;98012.22;5075945;28;20182;-69
2021/03/06 10:04:48;;;;;;;5.33;4.83;;;;;;;1.85;50.34;98019.97;5075804;28;20201;-67
2021/03/06 10:07:13;;;;;;;4.70;4.30;;;;;;;1.88;51.49;98019.72;5076752;28;20675;-69
2021/03/06 10:09:39;;;;;;;5.87;4.97;;;;;;;1.95;51.43;98007.03;5079043;28;20181;-70
2021/03/06 10:12:16;;;;;;;5.80;4.50;;;;;;;1.94;51.05;98005.41;5085330;28;20188;-69
2021/03/06 10:14:42;;;;;;;5.10;4.60;;;;;;;2.20;50.75;98006.38;5071527;28;20197;-70
2021/03/06 10:17:09;;;;;;;5.43;4.87;;;;;;;2.23;50.64;98005.28;5078156;28;20199;-72
2021/03/06 10:19:48;;;;;;;4.80;4.30;;;;;;;2.30;50.53;98001.97;5087502;28;20181;-69
2021/03/06 10:22:15;;;;;;;4.60;4.20;;;;;;;2.50;48.90;98000.91;5079604;28;20219;-70
2021/03/06 10:25:02;;;;;;;4.50;4.10;;;;;;;2.53;47.86;98004.97;5075915;28;20669;-70
2021/03/06 10:27:38;;;;;;;5.57;4.57;;;;;;;2.57;48.12;97997.72;5082206;28;20565;-69
2021/03/06 10:30:15;;;;;;;4.93;4.53;;;;;;;2.69;48.88;98004.31;5076365;28;20180;-70
2021/03/06 10:32:42;;;;;;;4.73;4.20;;;;;;;2.53;48.30;98009.31;5080136;28;20185;-71
2021/03/06 10:35:29;;;;;;;4.80;4.40;;;;;;;2.40;48.64;97994.94;5080195;28;20335;-70
2021/03/06 10:37:55;;;;;;;5.97;4.77;;;;;;;2.74;48.56;97994.31;5077711;28;20197;-71
2021/03/06 10:40:38;;;;;;;5.10;4.37;;;;;;;2.89;48.22;97995.44;5081792;28;20238;-72
2021/03/06 10:43:03;;;;;;;4.90;4.13;;;;;;;2.90;47.89;98004.81;5085518;28;20181;-68
2021/03/06 10:45:30;;;;;;;4.90;4.40;;;;;;;2.79;47.92;97999.88;5088393;28;20200;-71
2021/03/06 10:47:59;;;;;;;4.50;4.10;;;;;;;2.78;47.41;98003.44;5089328;28;20181;-70
2021/03/06 10:50:30;;;;;;;4.37;4.00;;;;;;;2.81;47.98;97995.38;5077013;28;20372;-68
2021/03/06 10:53:20;;;;;;;4.37;3.97;;;;;;;2.88;47.17;98005.00;5088286;28;20235;-70
2021/03/06 10:55:48;;;;;;;4.50;4.10;;;;;;;2.92;46.43;98001.13;5084513;28;20287;-70
2021/03/06 10:58:13;;;;;;;3.90;3.57;;;;;;;2.90;45.15;97997.06;5078668;28;20196;-71
2021/03/06 11:00:40;;;;;;;4.37;3.97;;;;;;;3.04;45.12;97995.72;5081765;28;20528;-70
2021/03/06 11:03:08;;;;;;;5.13;4.10;;;;;;;2.86;44.94;97999.13;5079240;28;20185;-73
2021/03/06 11:05:35;;;;;;;4.93;4.07;;;;;;;2.97;45.48;97987.75;5074346;28;20250;-71
2021/03/06 11:08:20;;;;;;;3.93;3.63;;;;;;;3.10;45.52;97979.59;5080252;28;20211;-70
2021/03/06 11:10:52;;;;;;;3.70;3.40;;;;;;;3.43;45.85;97983.22;5082900;28;20182;-71
2021/03/06 11:13:19;;;;;;;4.00;3.67;;;;;;;3.39;44.32;97984.50;5086797;28;20173;-70
2021/03/06 11:15:54;;;;;;;4.27;3.90;;;;;;;3.36;44.84;97983.03;5084151;28;20258;-71
2021/03/06 11:18:21;;;;;;;4.17;3.83;;;;;;;3.47;44.90;97981.94;5092053;28;20188;-71
2021/03/06 11:20:48;;;;;;;5.37;4.10;;;;;;;3.50;45.46;97981.66;5083872;28;20193;-70
2021/03/06 11:23:14;;;;;;;3.87;3.57;;;;;;;3.59;44.65;97980.75;5085669;28;20227;-70
2021/03/06 11:25:40;;;;;;;4.40;4.00;;;;;;;3.61;41.60;97973.63;5083583;28;20188;-70
2021/03/06 11:28:07;;;;;;;4.00;3.70;;;;;;;3.46;42.14;97975.13;5080097;28;20178;-72
2021/03/06 11:30:45;;;;;;;3.83;3.50;;;;;;;3.59;41.57;97978.16;5089268;28;20199;-72
2021/03/06 11:33:13;;;;;;;3.60;3.30;;;;;;;3.54;40.57;97973.44;5073084;28;20180;-74
2021/03/06 11:35:40;;;;;;;3.40;3.13;;;;;;;3.78;40.70;97969.34;5082971;28;20384;-74
2021/03/06 11:38:07;;;;;;;3.50;3.20;;;;;;;3.76;39.79;97977.28;5081522;28;20184;-73
2021/03/06 11:40:34;;;;;;;3.60;3.30;;;;;;;3.79;40.17;97979.53;5086280;28;20169;-73
2021/03/06 11:43:00;;;;;;;3.70;3.37;;;;;;;3.67;40.11;97965.25;5083001;28;20199;-73
2021/03/06 11:45:26;;;;;;;3.00;2.70;;;;;;;3.70;39.00;97965.75;5078746;28;20665;-73
2021/03/06 11:47:53;;;;;;;3.20;2.90;;;;;;;3.71;38.23;97969.16;5089309;28;20192;-68